Time;durP1;ratioP1;P1;durP2;ratioP2;P2;SDS_P1;SDS_P2;PMS_P1;PMS_P2;Temp;Humidity;BMP_temperature;BMP_pressure;BME280_temperature;BME280_humidity;BME280_pressure;Samples;Min_cycle;Max_cycle;Signal;HPM_P1;HPM_P2
2023/01/21 00:00:37;;;;;;;4.28;3.40;;;;;;;-146.19;100.00;65364.44;10586728;28;20055;-44
2023/01/21 00:05:57;;;;;;;3.60;3.17;;;;;;;-146.19;100.00;65364.44;10586777;28;20058;-45
2023/01/21 00:11:16;;;;;;;3.65;2.95;;;;;;;-146.19;100.00;65364.44;10586532;28;20048;-44
2023/01/21 00:16:36;;;;;;;4.05;3.63;;;;;;;-146.19;100.00;65364.44;10599908;28;20476;-44
2023/01/21 00:21:55;;;;;;;4.03;3.40;;;;;;;-146.19;100.00;65364.44;10586057;28;20048;-44
2023/01/21 00:27:14;;;;;;;4.55;3.30;;;;;;;-146.19;100.00;65364.44;10585924;28;20059;-45
2023/01/21 00:32:33;;;;;;;5.20;3.20;;;;;;;-146.19;100.00;65364.44;10585654;28;20062;-45
2023/01/21 00:37:53;;;;;;;3.88;3.40;;;;;;;-146.19;100.00;65364.44;10585453;28;20052;-45
2023/01/21 00:43:12;;;;;;;4.70;3.03;;;;;;;-146.19;100.00;65364.44;10584588;28;20552;-44
2023/01/21 00:48:31;;;;;;;4.05;3.45;;;;;;;-146.19;100.00;65364.44;10584239;28;20738;-44
2023/01/21 00:53:51;;;;;;;4.18;3.35;;;;;;;-146.19;100.00;65364.44;10584724;28;20415;-44
2023/01/21 00:59:10;;;;;;;4.53;3.15;;;;;;;-146.19;100.00;65364.44;10598124;28;20085;-45
2023/01/21 01:04:29;;;;;;;3.33;2.83;;;;;;;-146.19;100.00;65364.44;10584317;28;20047;-46
2023/01/21 01:09:49;;;;;;;3.97;3.20;;;;;;;-146.19;100.00;65364.44;10597221;28;20047;-45
2023/01/21 01:15:08;;;;;;;3.38;2.78;;;;;;;-146.19;100.00;65364.44;10583369;28;20044;-45
2023/01/21 01:20:28;;;;;;;3.17;2.85;;;;;;;-146.19;100.00;65364.44;10583651;28;20056;-45
2023/01/21 01:26:02;;;;;;;3.55;2.80;;;;;;;-146.19;100.00;65364.44;10597134;28;20035;-44
2023/01/21 01:31:21;;;;;;;3.15;2.75;;;;;;;-146.19;100.00;65364.44;10583222;28;20048;-44
2023/01/21 01:36:41;;;;;;;3.45;2.88;;;;;;;-146.19;100.00;65364.44;10596521;28;20054;-45
2023/01/21 01:42:02;;;;;;;3.25;2.85;;;;;;;-146.19;100.00;65364.44;10596309;28;20043;-45
2023/01/21 01:47:26;;;;;;;3.10;2.80;;;;;;;-146.19;100.00;65364.44;10582048;28;20428;-44
2023/01/21 01:52:47;;;;;;;3.22;2.92;;;;;;;-146.19;100.00;65364.44;10566504;28;20058;-44
2023/01/21 01:58:10;;;;;;;3.15;2.85;;;;;;;-146.19;100.00;65364.44;10580504;28;20047;-44
2023/01/21 02:03:45;;;;;;;3.17;2.70;;;;;;;-146.19;100.00;65364.44;10582033;28;20381;-45
2023/01/21 02:09:04;;;;;;;3.25;2.75;;;;;;;-146.19;100.00;65364.44;10568368;28;20051;-45
2023/01/21 02:14:24;;;;;;;3.85;2.90;;;;;;;-146.19;100.00;65364.44;10581258;28;20044;-45
2023/01/21 02:19:52;;;;;;;3.17;2.88;;;;;;;-146.19;100.00;65364.44;10595214;28;20036;-44
2023/01/21 02:25:33;;;;;;;3.10;2.80;;;;;;;-146.19;100.00;65364.44;10581476;28;20051;-44
2023/01/21 02:31:32;;;;;;;3.72;2.70;;;;;;;-146.19;100.00;65364.44;10581484;28;20056;-44
2023/01/21 02:37:13;;;;;;;2.80;2.50;;;;;;;-146.19;100.00;65364.44;10581280;28;20058;-44
2023/01/21 02:43:17;;;;;;;2.63;2.42;;;;;;;-146.19;100.00;65364.44;10581088;28;20055;-45
2023/01/21 02:48:59;;;;;;;2.90;2.55;;;;;;;-146.19;100.00;65364.44;10492053;28;20056;-44
2023/01/21 02:54:37;;;;;;;2.70;2.50;;;;;;;-146.19;100.00;65364.44;10565626;28;20097;-44
2023/01/21 02:59:58;;;;;;;2.47;2.25;;;;;;;-146.19;100.00;65364.44;10580757;28;20109;-46
2023/01/21 03:05:28;;;;;;;2.90;2.50;;;;;;;-146.19;100.00;65364.44;10565459;28;20043;-45
2023/01/21 03:10:54;;;;;;;3.30;2.40;;;;;;;-146.19;100.00;65364.44;10580589;28;20044;-44
2023/01/21 03:21:54;;;;;;;2.47;2.28;;;;;;;-146.19;100.00;65364.44;10593898;28;20043;-44
2023/01/21 03:27:17;;;;;;;2.85;2.60;;;;;;;-146.19;100.00;65364.44;10578449;28;20032;-46
2023/01/21 03:32:37;;;;;;;3.15;2.75;;;;;;;-146.19;100.00;65364.44;10581019;28;20097;-44
2023/01/21 03:38:17;;;;;;;2.60;2.40;;;;;;;-146.19;100.00;65364.44;10572607;28;20112;-44
2023/01/21 03:43:38;;;;;;;2.75;2.55;;;;;;;-146.19;100.00;65364.44;10587588;28;20047;-45
2023/01/21 03:49:02;;;;;;;2.97;2.60;;;;;;;-146.19;100.00;65364.44;10571591;28;20101;-45
2023/01/21 03:54:22;;;;;;;2.40;2.20;;;;;;;-146.19;100.00;65364.44;10587084;28;20047;-45
2023/01/21 03:59:43;;;;;;;2.50;2.30;;;;;;;-146.19;100.00;65364.44;10586331;28;20047;-44
2023/01/21 04:05:03;;;;;;;2.45;2.25;;;;;;;-146.19;100.00;65364.44;10586841;28;20051;-44
2023/01/21 04:10:22;;;;;;;3.45;2.40;;;;;;;-146.19;100.00;65364.44;10586639;28;20055;-45
2023/01/21 04:15:41;;;;;;;2.40;2.20;;;;;;;-146.19;100.00;65364.44;10586610;28;20058;-45
2023/01/21 04:21:01;;;;;;;2.33;2.13;;;;;;;-146.19;100.00;65364.44;10586039;28;20071;-44
2023/01/21 04:26:20;;;;;;;2.30;2.00;;;;;;;-146.19;100.00;65364.44;10585947;28;20075;-45
2023/01/21 04:31:39;;;;;;;2.60;2.40;;;;;;;-146.19;100.00;65364.44;10585870;28;20055;-46
2023/01/21 04:36:59;;;;;;;2.67;2.28;;;;;;;-146.19;100.00;65364.44;10585575;28;20100;-45
2023/01/21 04:42:18;;;;;;;2.20;2.00;;;;;;;-146.19;100.00;65364.44;10584388;28;20488;-44
2023/01/21 04:47:42;;;;;;;2.83;2.17;;;;;;;-146.19;100.00;65364.44;10584125;28;20059;-44
2023/01/21 04:53:01;;;;;;;2.20;2.05;;;;;;;-146.19;100.00;65364.44;10584901;28;20056;-44
2023/01/21 04:58:20;;;;;;;3.60;2.20;;;;;;;-146.19;100.00;65364.44;10584706;28;20055;-45
2023/01/21 05:03:40;;;;;;;2.03;1.92;;;;;;;-146.19;100.00;65364.44;10583770;28;20514;-45
2023/01/21 05:08:59;;;;;;;2.42;2.17;;;;;;;-146.19;100.00;65364.44;10584208;28;20052;-45
2023/01/21 05:14:18;;;;;;;2.58;2.38;;;;;;;-146.19;100.00;65364.44;10584000;28;20048;-43
2023/01/21 05:19:38;;;;;;;2.03;1.83;;;;;;;-146.19;100.00;65364.44;10597386;28;20042;-46
2023/01/21 05:24:59;;;;;;;2.20;2.00;;;;;;;-146.19;100.00;65364.44;10583568;28;20039;-44
2023/01/21 05:30:19;;;;;;;2.28;2.08;;;;;;;-146.19;100.00;65364.44;10596964;28;20089;-43
2023/01/21 05:35:39;;;;;;;1.90;1.70;;;;;;;-146.19;100.00;65364.44;10583215;28;20051;-44
2023/01/21 05:41:00;;;;;;;1.98;1.80;;;;;;;-146.19;100.00;65364.44;10582969;28;20055;-44
2023/01/21 05:46:19;;;;;;;2.03;1.90;;;;;;;-146.19;100.00;65364.44;10582482;28;20056;-44
2023/01/21 05:51:38;;;;;;;1.85;1.75;;;;;;;-146.19;100.00;65364.44;10596167;28;20043;-45
2023/01/21 05:56:58;;;;;;;1.85;1.67;;;;;;;-146.19;100.00;65364.44;10595879;28;20047;-44
2023/01/21 06:02:17;;;;;;;2.30;2.10;;;;;;;-146.19;100.00;65364.44;10595858;28;20096;-44
2023/01/21 06:07:37;;;;;;;2.38;2.00;;;;;;;-146.19;100.00;65364.44;10581994;28;20052;-46
2023/01/21 06:12:56;;;;;;;2.03;1.80;;;;;;;-146.19;100.00;65364.44;10595457;28;20043;-44
2023/01/21 06:18:16;;;;;;;1.67;1.58;;;;;;;-146.19;100.00;65364.44;10587903;27;20069;-45
2023/01/21 06:23:35;;;;;;;1.83;1.73;;;;;;;-146.19;100.00;65364.44;10600029;27;20043;-44
2023/01/21 06:28:55;;;;;;;1.70;1.60;;;;;;;-146.19;100.00;65364.44;10600437;27;20051;-44
2023/01/21 06:34:15;;;;;;;1.67;1.58;;;;;;;-146.19;100.00;65364.44;10600418;28;20043;-43
2023/01/21 06:39:35;;;;;;;1.80;1.70;;;;;;;-146.19;100.00;65364.44;10613901;27;20040;-44
2023/01/21 06:44:54;;;;;;;1.98;1.60;;;;;;;-146.19;100.00;65364.44;10599905;28;20059;-44
2023/01/21 06:50:15;;;;;;;1.90;1.80;;;;;;;-146.19;100.00;65364.44;10602687;28;20070;-44
2023/01/21 06:55:34;;;;;;;1.67;1.58;;;;;;;-146.19;100.00;65364.44;10599216;28;20043;-44
2023/01/21 07:00:57;;;;;;;1.60;1.50;;;;;;;-146.19;100.00;65364.44;10599715;28;20063;-44
2023/01/21 07:06:17;;;;;;;1.70;1.60;;;;;;;18.10;48.91;96985.66;10602974;27;20054;-47
2023/01/21 07:11:36;;;;;;;1.77;1.67;;;;;;;18.12;48.99;96990.75;10608153;27;20051;-44
2023/01/21 07:16:55;;;;;;;1.55;1.42;;;;;;;18.13;48.83;97000.41;10607965;27;20055;-45
2023/01/21 07:22:15;;;;;;;1.73;1.58;;;;;;;18.12;48.83;96999.63;10606377;27;20046;-44
2023/01/21 07:27:35;;;;;;;1.40;1.30;;;;;;;18.14;48.79;97010.09;10590304;27;20548;-45
2023/01/21 07:32:55;;;;;;;2.67;1.58;;;;;;;18.14;48.91;96997.41;10601709;28;20051;-45
2023/01/21 07:38:14;;;;;;;1.60;1.50;;;;;;;18.16;48.82;97007.88;10586831;28;20503;-45
2023/01/21 07:43:34;;;;;;;2.85;1.70;;;;;;;18.18;48.98;97006.47;10587082;28;20047;-45
2023/01/21 07:48:53;;;;;;;1.48;1.38;;;;;;;18.21;49.30;97004.25;10586784;28;20066;-44
2023/01/21 07:54:13;;;;;;;1.58;1.48;;;;;;;18.23;49.18;97012.81;10595347;27;20055;-46
2023/01/21 07:59:33;;;;;;;1.83;1.55;;;;;;;18.25;49.17;97007.91;10603373;27;20052;-45
2023/01/21 08:04:52;;;;;;;1.67;1.58;;;;;;;18.26;49.20;97002.22;10612382;27;20046;-44
2023/01/21 08:10:12;;;;;;;1.80;1.70;;;;;;;18.29;49.51;97003.53;10620691;27;20043;-45
2023/01/21 08:15:31;;;;;;;1.88;1.50;;;;;;;18.31;49.84;97015.56;10571318;28;20074;-44
2023/01/21 08:20:55;;;;;;;1.67;1.50;;;;;;;18.35;50.50;97021.94;10586114;28;20112;-45
2023/01/21 08:26:14;;;;;;;1.67;1.58;;;;;;;18.38;50.38;97026.72;10613279;27;20035;-45
2023/01/21 08:31:34;;;;;;;2.00;1.70;;;;;;;18.40;49.93;97026.38;10585682;28;20066;-44
2023/01/21 08:36:53;;;;;;;1.92;1.83;;;;;;;18.43;49.42;97039.28;10585727;28;20100;-45
2023/01/21 08:42:13;;;;;;;4.35;2.03;;;;;;;18.45;48.93;97025.47;10584838;28;20499;-45
2023/01/21 08:47:32;;;;;;;1.85;1.75;;;;;;;18.47;48.45;97020.56;10584571;28;20060;-45
2023/01/21 08:52:52;;;;;;;1.95;1.85;;;;;;;18.50;48.06;97038.81;10584921;28;20047;-47
2023/01/21 08:58:12;;;;;;;2.00;1.90;;;;;;;18.50;47.74;97034.22;10608168;27;20453;-44
2023/01/21 09:03:31;;;;;;;1.75;1.65;;;;;;;18.53;47.12;97033.59;10612783;27;20047;-46
2023/01/21 09:08:51;;;;;;;2.50;1.92;;;;;;;18.56;46.98;97042.97;10626742;27;20108;-44
2023/01/21 09:14:10;;;;;;;2.45;2.20;;;;;;;18.59;46.66;97042.34;10626418;27;20084;-44
2023/01/21 09:19:30;;;;;;;2.20;2.00;;;;;;;18.61;46.36;97047.44;10626246;27;20055;-46
2023/01/21 09:24:50;;;;;;;1.98;1.80;;;;;;;18.63;46.04;97050.63;10625268;27;20100;-45
2023/01/21 09:30:10;;;;;;;2.97;2.10;;;;;;;18.67;45.93;97051.59;10625242;27;20046;-44
2023/01/21 09:35:30;;;;;;;3.67;1.73;;;;;;;18.70;45.76;97056.34;10625656;27;20054;-44
2023/01/21 09:40:49;;;;;;;2.75;2.20;;;;;;;18.73;45.53;97044.94;10625487;27;20062;-46
2023/01/21 09:46:33;;;;;;;2.17;2.05;;;;;;;18.73;45.41;97050.34;10624690;27;20063;-44
2023/01/21 09:52:05;;;;;;;2.30;1.80;;;;;;;18.75;45.32;97057.00;10625079;27;20051;-45
2023/01/21 09:57:35;;;;;;;2.75;1.70;;;;;;;18.80;45.21;97047.19;10624681;27;20058;-45
2023/01/21 10:03:13;;;;;;;;;;;;;;;18.81;44.96;97051.50;10604894;27;20043;-44
2023/01/21 10:08:35;;;;;;;1.88;1.75;;;;;;;18.83;45.23;97041.97;10599800;27;19927;-45
2023/01/21 10:14:21;;;;;;;1.80;1.70;;;;;;;18.87;45.33;97048.34;10581927;28;20051;-45
2023/01/21 10:19:53;;;;;;;1.88;1.77;;;;;;;18.89;45.38;97048.81;10595351;28;20036;-47
2023/01/21 10:25:19;;;;;;;2.60;1.80;;;;;;;18.93;45.60;97041.72;10580284;27;20510;-47
2023/01/21 10:30:42;;;;;;;1.75;1.65;;;;;;;18.98;46.04;97042.66;10588811;27;20394;-45
2023/01/21 10:36:13;;;;;;;1.80;1.70;;;;;;;19.01;45.76;97033.91;10566154;28;20051;-46
2023/01/21 10:41:42;;;;;;;1.88;1.67;;;;;;;19.05;45.74;97026.78;10582144;28;20048;-46
2023/01/21 10:47:18;;;;;;;2.75;1.73;;;;;;;19.07;45.70;97036.19;10592250;28;20519;-48
2023/01/21 10:52:44;;;;;;;1.70;1.60;;;;;;;19.11;45.57;97020.94;10585170;28;20051;-46
2023/01/21 10:58:24;;;;;;;2.63;2.03;;;;;;;19.17;45.53;97018.88;10584545;28;20062;-45
2023/01/21 11:04:08;;;;;;;1.90;1.80;;;;;;;19.20;45.98;97006.63;10602395;28;20035;-45
2023/01/21 11:09:31;;;;;;;139.10;91.90;;;;;;;19.26;45.72;97008.06;10458614;28;20064;-46
2023/01/21 11:15:00;;;;;;;110.53;70.00;;;;;;;19.29;46.03;96989.31;10458505;28;20053;-44
2023/01/21 11:20:34;;;;;;;105.75;66.47;;;;;;;19.33;46.13;96989.50;10443802;28;20057;-45
2023/01/21 11:26:18;;;;;;;68.13;43.28;;;;;;;19.34;43.66;96981.03;10457875;28;20542;-44
2023/01/21 11:31:40;;;;;;;85.47;55.45;;;;;;;19.39;45.10;96985.53;10457642;28;20048;-48
2023/01/21 11:37:03;;;;;;;83.32;51.03;;;;;;;19.42;45.31;96974.06;10473924;28;20101;-45
2023/01/21 11:42:23;;;;;;;67.15;44.50;;;;;;;19.46;45.02;96975.00;10572361;28;20055;-46
2023/01/21 11:47:50;;;;;;;65.63;41.63;;;;;;;19.49;44.90;96960.88;10587071;28;20055;-44
2023/01/21 11:53:13;;;;;;;55.65;37.08;;;;;;;19.53;45.05;96958.31;10600448;28;20043;-45
2023/01/21 11:58:42;;;;;;;52.78;35.03;;;;;;;19.56;44.96;96955.78;10600141;28;20047;-46
2023/01/21 12:04:02;;;;;;;52.47;33.63;;;;;;;19.60;44.91;96942.44;10599509;28;20040;-45
2023/01/21 12:09:21;;;;;;;49.20;30.42;;;;;;;19.63;44.76;96938.28;10584962;28;20522;-45
2023/01/21 12:14:50;;;;;;;43.72;28.38;;;;;;;19.67;44.37;96939.22;10584763;28;20549;-46
2023/01/21 12:20:21;;;;;;;41.40;26.95;;;;;;;19.70;45.03;96947.50;10586384;28;20063;-46
2023/01/21 12:26:19;;;;;;;40.58;24.85;;;;;;;19.74;45.32;96939.56;10570318;28;20089;-44
2023/01/21 12:31:47;;;;;;;39.03;24.53;;;;;;;19.79;46.25;96931.28;10585845;28;20050;-44
2023/01/21 12:37:21;;;;;;;37.17;21.13;;;;;;;19.83;46.52;96940.31;10583621;28;20480;-46
2023/01/21 12:42:45;;;;;;;27.70;18.40;;;;;;;19.88;46.63;96929.34;10584169;28;20395;-46
2023/01/21 12:48:49;;;;;;;27.55;16.77;;;;;;;19.92;46.50;96930.28;10568955;28;20055;-46
2023/01/21 12:54:28;;;;;;;40.70;16.55;;;;;;;19.98;46.77;96927.41;10523987;28;20055;-46
2023/01/21 12:59:52;;;;;;;23.95;13.50;;;;;;;20.02;46.99;96925.66;10584740;28;20075;-48
2023/01/21 13:05:14;;;;;;;21.05;13.18;;;;;;;-146.19;100.00;65364.44;10567666;28;20051;-46
2023/01/21 13:10:39;;;;;;;26.30;12.38;;;;;;;-146.19;100.00;65364.44;10584166;28;20411;-45
2023/01/21 13:16:02;;;;;;;18.35;11.15;;;;;;;-146.19;100.00;65364.44;10583810;28;20051;-46
2023/01/21 13:21:33;;;;;;;16.83;10.70;;;;;;;-146.19;100.00;65364.44;10568162;28;20108;-45
2023/01/21 13:26:59;;;;;;;13.50;9.77;;;;;;;-146.19;100.00;65364.44;10583849;28;20118;-46
2023/01/21 13:32:25;;;;;;;14.75;8.73;;;;;;;-146.19;100.00;65364.44;10596861;28;20043;-45
2023/01/21 13:38:00;;;;;;;12.90;8.65;;;;;;;-146.19;100.00;65364.44;10567341;28;20056;-47
2023/01/21 13:43:53;;;;;;;11.40;8.35;;;;;;;-146.19;100.00;65364.44;10582667;28;20114;-46
2023/01/21 13:49:31;;;;;;;13.13;7.88;;;;;;;-146.19;100.00;65364.44;10569070;28;20051;-46
2023/01/21 13:54:57;;;;;;;12.25;8.18;;;;;;;-146.19;100.00;65364.44;10582057;28;20055;-44
2023/01/21 14:00:21;;;;;;;10.57;7.20;;;;;;;-146.19;100.00;65364.44;10595852;28;20040;-47
2023/01/21 14:05:49;;;;;;;10.55;6.95;;;;;;;-146.19;100.00;65364.44;10582039;28;20048;-45
2023/01/21 14:11:15;;;;;;;10.20;6.77;;;;;;;-146.19;100.00;65364.44;10595601;28;20047;-43
2023/01/21 14:17:00;;;;;;;10.48;6.88;;;;;;;-146.19;100.00;65364.44;10581454;28;20101;-43
2023/01/21 14:22:32;;;;;;;9.75;6.47;;;;;;;-146.19;100.00;65364.44;10565577;28;20043;-43
2023/01/21 14:28:05;;;;;;;10.57;6.72;;;;;;;-146.19;100.00;65364.44;10581489;28;20074;-45
2023/01/21 14:33:46;;;;;;;9.02;6.40;;;;;;;-146.19;100.00;65364.44;10580685;28;20441;-44
2023/01/21 14:39:29;;;;;;;10.88;6.72;;;;;;;-146.19;100.00;65364.44;10580381;28;20056;-44
2023/01/21 14:44:48;;;;;;;9.05;6.53;;;;;;;-146.19;100.00;65364.44;10579854;28;20044;-44
2023/01/21 14:50:08;;;;;;;10.80;6.32;;;;;;;-146.19;100.00;65364.44;10580307;28;20056;-44
2023/01/21 14:55:30;;;;;;;9.02;6.20;;;;;;;-146.19;100.00;65364.44;10594408;28;20051;-44
2023/01/21 15:00:50;;;;;;;10.43;6.47;;;;;;;-146.19;100.00;65364.44;10580173;28;20055;-44
2023/01/21 15:06:17;;;;;;;13.90;7.50;;;;;;;-146.19;100.00;65364.44;10585132;28;20051;-45
2023/01/21 15:11:39;;;;;;;19.15;8.63;;;;;;;20.19;49.84;96968.03;10593851;28;20051;-45
2023/01/21 15:16:58;;;;;;;17.75;10.18;;;;;;;20.17;49.24;96968.38;10564373;28;20059;-44
2023/01/21 15:22:20;;;;;;;19.33;9.77;;;;;;;-146.19;100.00;65364.44;10593344;28;20050;-47
2023/01/21 15:27:40;;;;;;;19.23;9.43;;;;;;;-146.19;100.00;65364.44;10582636;27;20070;-46
2023/01/21 15:32:59;;;;;;;18.10;9.57;;;;;;;-146.19;100.00;65364.44;10583720;28;20491;-46
2023/01/21 15:38:19;;;;;;;17.50;9.25;;;;;;;-146.19;100.00;65364.44;10639815;27;20051;-45
2023/01/21 15:43:53;;;;;;;17.63;8.98;;;;;;;-146.19;100.00;65364.44;10629719;27;20464;-44
2023/01/21 15:49:41;;;;;;;13.50;8.30;;;;;;;-146.19;100.00;65364.44;10610598;27;20055;-46
2023/01/21 15:55:30;;;;;;;15.80;7.88;;;;;;;-146.19;100.00;65364.44;10587438;28;20052;-45
2023/01/21 16:01:02;;;;;;;14.45;8.27;;;;;;;-146.19;100.00;65364.44;10583350;27;20051;-44
2023/01/21 16:06:30;;;;;;;14.32;7.80;;;;;;;-146.19;100.00;65364.44;10596824;27;20063;-44
2023/01/21 16:12:05;;;;;;;14.50;7.40;;;;;;;-146.19;100.00;65364.44;10605308;27;20482;-45
2023/01/21 16:17:56;;;;;;;14.18;7.97;;;;;;;-146.19;100.00;65364.44;10640589;27;20035;-44
2023/01/21 16:23:17;;;;;;;13.13;7.45;;;;;;;-146.19;100.00;65364.44;10626580;27;20078;-45
2023/01/21 16:28:42;;;;;;;11.82;7.13;;;;;;;-146.19;100.00;65364.44;10617591;27;20086;-45
2023/01/21 16:34:02;;;;;;;11.43;6.97;;;;;;;-146.19;100.00;65364.44;10606197;27;20070;-45
2023/01/21 16:39:21;;;;;;;10.23;6.25;;;;;;;-146.19;100.00;65364.44;10627662;27;20047;-45
2023/01/21 16:44:41;;;;;;;10.18;6.18;;;;;;;-146.19;100.00;65364.44;10627435;27;20047;-44
2023/01/21 16:50:01;;;;;;;10.90;6.50;;;;;;;-146.19;100.00;65364.44;10637507;27;20040;-46
2023/01/21 16:55:28;;;;;;;10.57;5.95;;;;;;;-146.19;100.00;65364.44;10586509;27;20040;-45
2023/01/21 17:01:03;;;;;;;13.20;6.80;;;;;;;-146.19;100.00;65364.44;10580363;27;20047;-45
2023/01/21 17:06:28;;;;;;;9.93;6.20;;;;;;;-146.19;100.00;65364.44;10626730;27;20051;-45
2023/01/21 17:11:48;;;;;;;9.98;5.63;;;;;;;-146.19;100.00;65364.44;10639838;27;20054;-45
2023/01/21 17:17:08;;;;;;;17.83;6.60;;;;;;;-146.19;100.00;65364.44;10625760;27;20085;-43
2023/01/21 17:22:29;;;;;;;13.15;5.97;;;;;;;-146.19;100.00;65364.44;10626031;27;20054;-45
2023/01/21 17:27:49;;;;;;;12.00;5.30;;;;;;;-146.19;100.00;65364.44;10610110;27;20051;-46
2023/01/21 17:33:29;;;;;;;9.93;5.70;;;;;;;-146.19;100.00;65364.44;10625648;27;20047;-47
2023/01/21 17:38:48;;;;;;;8.18;5.13;;;;;;;19.92;46.09;96997.88;10624702;27;20487;-46
2023/01/21 17:44:18;;;;;;;7.45;5.20;;;;;;;-146.19;100.00;65364.44;10606962;27;20047;-48
2023/01/21 17:49:38;;;;;;;9.23;4.85;;;;;;;19.92;46.09;96997.88;10567087;28;20047;-50
2023/01/21 17:55:11;;;;;;;7.35;4.88;;;;;;;20.01;46.77;96999.75;10583009;27;20067;-44
2023/01/21 18:00:42;;;;;;;7.97;4.95;;;;;;;20.04;46.91;97001.84;10601271;27;20048;-46
2023/01/21 18:06:04;;;;;;;9.25;4.70;;;;;;;20.04;46.83;96999.13;10602633;27;20048;-47
2023/01/21 18:11:26;;;;;;;26.58;19.13;;;;;;;20.06;47.47;96997.69;10563036;28;20449;-50
2023/01/21 18:16:46;;;;;;;29.42;18.88;;;;;;;20.08;47.34;96997.38;10580019;28;20067;-49
2023/01/21 18:22:06;;;;;;;27.10;16.77;;;;;;;20.09;47.15;97009.75;10579674;28;20504;-47
2023/01/21 18:27:25;;;;;;;23.25;15.05;;;;;;;20.11;47.35;97021.06;10576920;28;20052;-51
2023/01/21 18:32:45;;;;;;;22.63;13.48;;;;;;;20.12;47.16;97025.34;10576232;28;20047;-52
2023/01/21 18:38:13;;;;;;;19.15;12.13;;;;;;;20.12;47.35;97030.75;10576752;28;20108;-53
2023/01/21 18:43:33;;;;;;;18.52;11.85;;;;;;;20.12;47.35;97030.75;10594515;28;20491;-51
2023/01/21 18:48:52;;;;;;;20.00;12.50;;;;;;;-146.19;100.00;65364.44;10580326;28;20122;-51
2023/01/21 18:54:16;;;;;;;15.95;10.85;;;;;;;-146.19;100.00;65364.44;10580394;28;20048;-47
2023/01/21 18:59:36;;;;;;;15.90;10.25;;;;;;;-146.19;100.00;65364.44;10580947;28;20047;-47
2023/01/21 19:04:56;;;;;;;15.80;10.75;;;;;;;-146.19;100.00;65364.44;10598704;28;20042;-50
2023/01/21 19:10:18;;;;;;;16.50;10.63;;;;;;;-146.19;100.00;65364.44;10587097;28;20399;-47
2023/01/21 19:15:38;;;;;;;18.52;10.10;;;;;;;-146.19;100.00;65364.44;10602428;28;20039;-49
2023/01/21 19:20:57;;;;;;;15.80;8.75;;;;;;;-146.19;100.00;65364.44;10587931;28;20062;-57
2023/01/21 19:26:17;;;;;;;17.20;9.23;;;;;;;-146.19;100.00;65364.44;10587113;28;20044;-57
2023/01/21 19:31:36;;;;;;;14.02;9.20;;;;;;;-146.19;100.00;65364.44;10586844;28;20052;-56
2023/01/21 19:36:57;;;;;;;17.02;8.70;;;;;;;-146.19;100.00;65364.44;10600500;28;20399;-53
2023/01/21 19:42:16;;;;;;;15.25;9.50;;;;;;;-146.19;100.00;65364.44;10600141;28;20104;-55
2023/01/21 19:47:38;;;;;;;14.60;8.90;;;;;;;-146.19;100.00;65364.44;10586048;28;20117;-53
2023/01/21 19:52:57;;;;;;;13.80;8.25;;;;;;;-146.19;100.00;65364.44;10599392;28;20040;-56
2023/01/21 19:58:19;;;;;;;12.30;8.05;;;;;;;-146.19;100.00;65364.44;10585207;28;20518;-56
2023/01/21 20:03:39;;;;;;;15.30;8.52;;;;;;;-146.19;100.00;65364.44;10586665;28;20051;-53
2023/01/21 20:08:59;;;;;;;14.27;7.95;;;;;;;-146.19;100.00;65364.44;10600249;28;20047;-54
2023/01/21 20:14:18;;;;;;;13.02;7.97;;;;;;;-146.19;100.00;65364.44;10570093;28;20061;-56
2023/01/21 20:19:40;;;;;;;13.60;8.10;;;;;;;-146.19;100.00;65364.44;10585511;28;20496;-56
2023/01/21 20:25:00;;;;;;;15.25;8.50;;;;;;;-146.19;100.00;65364.44;10599681;28;20040;-55
2023/01/21 20:30:28;;;;;;;15.43;8.10;;;;;;;20.12;47.35;97030.75;10584729;28;20127;-57
2023/01/21 20:35:51;;;;;;;14.63;8.38;;;;;;;20.38;49.60;97124.59;10584045;28;20044;-58
2023/01/21 20:41:12;;;;;;;14.95;8.00;;;;;;;-146.19;100.00;65364.44;10583780;28;20055;-57
2023/01/21 20:46:32;;;;;;;14.18;7.85;;;;;;;-146.19;100.00;65364.44;10584623;28;20060;-53
2023/01/21 20:51:52;;;;;;;14.32;8.30;;;;;;;-146.19;100.00;65364.44;10569816;28;20051;-54
2023/01/21 20:57:12;;;;;;;15.75;8.18;;;;;;;20.37;49.97;97128.44;10597931;28;20044;-50
2023/01/21 21:02:31;;;;;;;16.73;8.20;;;;;;;-146.19;100.00;65364.44;10568580;28;20052;-47
2023/01/21 21:07:52;;;;;;;18.70;8.90;;;;;;;20.37;49.97;97128.44;10582993;28;20130;-48
2023/01/21 21:13:12;;;;;;;16.20;8.27;;;;;;;20.33;50.08;97133.69;10582965;28;20044;-49
2023/01/21 21:18:34;;;;;;;16.08;8.40;;;;;;;20.32;50.28;97135.56;10582680;28;20104;-48
2023/01/21 21:23:53;;;;;;;17.67;8.60;;;;;;;20.31;50.19;97128.59;10583186;28;20062;-48
2023/01/21 21:29:13;;;;;;;17.40;8.23;;;;;;;20.30;50.12;97137.81;10582866;28;20071;-45
2023/01/21 21:34:33;;;;;;;15.23;8.10;;;;;;;20.30;50.23;97137.81;10582172;28;20055;-47
2023/01/21 21:39:53;;;;;;;14.43;7.95;;;;;;;20.28;50.27;97134.63;10582129;28;20055;-47
2023/01/21 21:45:12;;;;;;;13.85;7.93;;;;;;;20.28;50.37;97140.03;10582446;28;20060;-47
2023/01/21 21:50:31;;;;;;;14.57;7.85;;;;;;;20.26;50.59;97134.16;10596235;28;20036;-48
2023/01/21 21:55:52;;;;;;;15.40;7.82;;;;;;;20.27;50.74;97143.09;10582072;28;20104;-46
2023/01/21 22:01:17;;;;;;;14.13;8.18;;;;;;;20.24;50.87;97144.50;10595921;28;20087;-47
2023/01/21 22:06:37;;;;;;;13.73;7.72;;;;;;;20.24;50.84;97154.53;10581882;28;20112;-47
2023/01/21 22:11:57;;;;;;;15.02;7.10;;;;;;;20.24;51.02;97151.84;10582121;28;20047;-46
2023/01/21 22:17:16;;;;;;;14.90;7.22;;;;;;;-146.19;100.00;65364.44;10582245;28;20060;-45
2023/01/21 22:22:35;;;;;;;14.07;7.15;;;;;;;-146.19;100.00;65364.44;10580880;28;20043;-47
2023/01/21 22:27:55;;;;;;;13.15;6.95;;;;;;;-146.19;100.00;65364.44;10581524;28;20055;-45
2023/01/21 22:33:14;;;;;;;15.25;7.38;;;;;;;-146.19;100.00;65364.44;10580785;28;20492;-44
2023/01/21 22:38:35;;;;;;;12.10;6.97;;;;;;;-146.19;100.00;65364.44;10581189;28;20051;-44
2023/01/21 22:43:54;;;;;;;11.30;7.07;;;;;;;-146.19;100.00;65364.44;10580389;28;20055;-45
2023/01/21 22:49:14;;;;;;;13.85;6.25;;;;;;;-146.19;100.00;65364.44;10581105;28;20055;-45
2023/01/21 22:54:34;;;;;;;11.40;6.88;;;;;;;-146.19;100.00;65364.44;10580862;28;20048;-45
2023/01/21 22:59:53;;;;;;;14.25;6.50;;;;;;;-146.19;100.00;65364.44;10580853;28;20047;-45
2023/01/21 23:05:12;;;;;;;10.60;6.22;;;;;;;20.09;100.00;97190.97;10594155;28;20040;-47
2023/01/21 23:10:32;;;;;;;11.52;6.53;;;;;;;-146.19;100.00;65364.44;10580548;28;20453;-46
2023/01/21 23:15:51;;;;;;;10.85;5.85;;;;;;;20.09;50.98;97190.97;10594260;28;20047;-44
2023/01/21 23:21:16;;;;;;;10.07;6.05;;;;;;;20.06;50.99;97197.03;10580304;28;20104;-47
2023/01/21 23:26:36;;;;;;;7.70;5.22;;;;;;;20.05;100.00;97200.84;10580107;28;20082;-45
2023/01/21 23:31:56;;;;;;;11.32;6.10;;;;;;;-146.19;100.00;65364.44;10580424;28;20414;-46
2023/01/21 23:37:16;;;;;;;12.70;6.03;;;;;;;-146.19;100.00;65364.44;10579579;28;20063;-46
2023/01/21 23:42:35;;;;;;;9.07;5.68;;;;;;;-146.19;100.00;65364.44;10579795;28;20048;-44
2023/01/21 23:47:55;;;;;;;9.75;5.47;;;;;;;-146.19;100.00;65364.44;10579313;28;20175;-48
2023/01/21 23:53:15;;;;;;;7.97;5.22;;;;;;;-146.19;100.00;65364.44;10587376;28;20048;-45
2023/01/21 23:58:34;;;;;;;8.90;5.20;;;;;;;-146.19;100.00;65364.44;10600939;28;20031;-44
